Cincinnati, OH (45201)

1:20 AM EST on February 10, 2016 (GMT -0500)
Mt Adams | | Change Station
CLOSE
Current Station
Personal Weather Station
Location: Cincinnati, OH
Elevation: 797 ft
Nearby Weather Stations
Active Advisory: Winter Weather Advisory Active Notice: Local Storm Report

Elev 797 ft 39.11 °N, 84.50 °W | Updated 12 seconds ago

Overcast
Overcast
16.3 °F
Feels Like 9 °F
N
4.7
Wind Variable Wind from WSW
Gusts 8.9 mph

Today
High -- | Low -- °F
--% Chance of Precip.
Yesterday
High -- | Low -- °F
Precip. -- in
Pressure 29.99 in
Visibility 10.0 miles
Clouds Overcast 4400 ft
Windchill 9 °F
Dew Point 11 °F
Humidity 79%
Rainfall 0.00 in
Snow Depth Not available.
7:35 AM 6:08 PM
Waxing Crescent, 4% visible
METAR KLUK 100553Z AUTO 28011G17KT 10SM OVC044 M08/M12 A2997 RMK AO2 SLP156 60000 T10781122 11044 21083 51008
Pressure 29.99 in
Visibility 10.0 miles
Clouds Overcast 4400 ft
Windchill 9 °F
Dew Point 11 °F
Humidity 79%
Rainfall 0.00 in
Snow Depth Not available.
7:35 AM 6:08 PM
Waxing Crescent, 4% visible
METAR KLUK 100553Z AUTO 28011G17KT 10SM OVC044 M08/M12 A2997 RMK AO2 SLP156 60000 T10781122 11044 21083 51008

10-Day Weather Forecast

Almanac

Astronomy

Feb. 10, 2016 Rise Set
Actual Time
Civil Twilight
Nautical Twilight
Astronomical Twilight
Moon
Length of Visible Light
Length of Day
Tomorrow will be .
, % of the Moon is Illuminated

Today's Extremes

State Highs State Lows

Community

WunderPhotos

Upload Photos

1,891,826 photos uploaded!

WunderBlog® & News

Nearby

Air Quality

  Air Quality AQ Index Pollutant
Not available.

Snow Depth

Station Depth Elevation

Earthquake Activity

City Distance Mag. Time & Date
Minimum magnitude displayed is 2.5.

Coastal Water Temperatures

Place Temperature

Stations

Nearby Weather Stations

Station Location Temp. Windchill Dew Point Humidity Wind Precip. Elev Updated Type
                   

Watches & Warnings

Winter Weather Advisory
Issued: 9:40 PM EST Feb. 9, 2016 – National Weather Service

... Winter Weather Advisory remains in effect until 10 am EST
Wednesday...

* timing... scattered snow showers overnight will become more
widespread Wednesday morning.

* Accumulations... additional snow accumulations of up to 1 inch
can be expected.

* Impacts... travel difficulties are expected due to reduced
visibilities and snow accumulations.

Precautionary/preparedness actions...

Remember... a Winter Weather Advisory for snow means that periods
of snow will cause primarily travel difficulties. Be prepared for
snow covered roads and limited visibilities... and use caution
while driving. Stay tuned to NOAA Weather Radio or your favorite
source of information for the latest updates. Additional details
can also be found at www.Weather.Gov/iln as well as on our
facebook and twitter pages.